createdAt,value
2022-11-24T00:00:31.352Z,12.58
2022-11-24T00:05:38.326Z,12.39
2022-11-24T00:10:39.787Z,12.64
2022-11-24T00:15:41.236Z,12.32
2022-11-24T00:20:42.682Z,12.44
2022-11-24T00:25:44.134Z,12.60
2022-11-24T00:30:45.679Z,12.89
2022-11-24T00:35:54.613Z,12.62
2022-11-24T00:40:56.111Z,12.80
2022-11-24T00:45:57.687Z,12.69
2022-11-24T00:51:00.990Z,13.02
2022-11-24T00:56:03.938Z,12.56
2022-11-24T01:01:07.498Z,12.63
2022-11-24T01:06:13.463Z,12.56
2022-11-24T01:11:19.398Z,12.16
2022-11-24T01:16:31.862Z,12.49
2022-11-24T01:21:33.327Z,12.30
2022-11-24T01:26:34.779Z,12.33
2022-11-24T01:31:37.015Z,12.33
2022-11-24T01:36:38.514Z,12.69
2022-11-24T01:41:40.030Z,12.40
2022-11-24T01:46:44.816Z,12.42
2022-11-24T01:52:19.949Z,12.40
2022-11-24T01:57:29.621Z,11.96
2022-11-24T02:02:31.084Z,12.41
2022-11-24T02:07:32.610Z,12.44
2022-11-24T02:12:34.126Z,12.59
2022-11-24T02:17:35.672Z,12.69
2022-11-24T02:23:03.670Z,12.83
2022-11-24T02:28:07.270Z,12.60
2022-11-24T02:33:09.930Z,12.81
2022-11-24T02:38:12.818Z,12.43
2022-11-24T02:43:16.490Z,12.86
2022-11-24T02:48:17.965Z,13.03
2022-11-24T02:53:19.426Z,12.94
2022-11-24T02:58:20.939Z,13.12
2022-11-24T03:03:22.437Z,13.11
2022-11-24T03:08:23.898Z,13.05
2022-11-24T03:13:25.358Z,12.66
2022-11-24T03:18:26.806Z,12.79
2022-11-24T03:23:28.272Z,13.11
2022-11-24T03:28:29.722Z,12.90
2022-11-24T03:33:31.174Z,13.04
2022-11-24T03:38:32.683Z,12.70
2022-11-24T03:43:35.913Z,13.11
2022-11-24T03:48:40.626Z,13.37
2022-11-24T03:53:42.084Z,13.39
2022-11-24T03:58:43.536Z,13.50
2022-11-24T04:03:44.984Z,13.93
2022-11-24T04:08:46.444Z,13.83
2022-11-24T04:13:47.921Z,13.70
2022-11-24T04:18:52.249Z,13.49
2022-11-24T04:23:53.702Z,13.64
2022-11-24T04:28:55.160Z,13.55
2022-11-24T04:33:56.624Z,13.35
2022-11-24T04:39:23.122Z,13.27
2022-11-24T04:44:19.520Z,13.60
2022-11-24T04:49:20.972Z,13.68
2022-11-24T04:54:22.426Z,13.71
2022-11-24T04:59:23.880Z,13.53
2022-11-24T05:04:25.362Z,13.47
2022-11-24T05:09:48.000Z,13.48
2022-11-24T05:14:48.292Z,13.37
2022-11-24T05:19:49.760Z,13.19
2022-11-24T05:24:51.212Z,13.50
2022-11-24T05:29:52.695Z,13.42
2022-11-24T05:34:54.618Z,13.66
2022-11-24T05:39:56.076Z,13.58
2022-11-24T05:44:59.540Z,13.74
2022-11-24T05:50:01.012Z,13.74
2022-11-24T05:55:02.513Z,13.50
2022-11-24T06:00:05.700Z,13.65
2022-11-24T06:05:07.407Z,13.57
2022-11-24T06:10:09.150Z,13.93
2022-11-24T06:15:11.203Z,13.73
2022-11-24T06:20:12.704Z,13.83
2022-11-24T06:25:14.358Z,13.53
2022-11-24T06:30:15.824Z,13.08
2022-11-24T06:35:17.409Z,13.29
2022-11-24T06:40:18.899Z,13.24
2022-11-24T06:45:20.440Z,13.44
2022-11-24T06:50:22.553Z,13.17
2022-11-24T06:55:24.002Z,13.73
2022-11-24T07:00:25.537Z,13.30
2022-11-24T07:05:27.201Z,13.51
2022-11-24T07:10:28.728Z,13.60
2022-11-24T07:15:30.517Z,13.55
2022-11-24T07:20:32.014Z,13.57
2022-11-24T07:25:33.600Z,13.50
2022-11-24T07:30:35.060Z,13.44
2022-11-24T07:35:36.532Z,12.77
2022-11-24T07:40:37.983Z,12.75
2022-11-24T07:45:39.529Z,12.93
2022-11-24T07:50:41.021Z,13.46
2022-11-24T07:55:42.494Z,13.21
2022-11-24T08:00:43.959Z,13.60
2022-11-24T08:11:18.158Z,13.69
2022-11-24T08:16:19.740Z,13.75
2022-11-24T08:21:23.084Z,13.73
2022-11-24T08:26:25.103Z,13.82
2022-11-24T08:31:32.711Z,13.81
2022-11-24T08:36:35.177Z,13.97
2022-11-24T08:41:36.676Z,14.26
2022-11-24T08:46:38.250Z,13.84
2022-11-24T08:51:39.780Z,13.91
2022-11-24T08:56:41.264Z,13.89
2022-11-24T09:01:42.954Z,13.85
2022-11-24T09:06:44.499Z,14.07
2022-11-24T09:11:45.959Z,13.74
2022-11-24T09:16:47.502Z,13.98
2022-11-24T09:21:48.994Z,13.56
2022-11-24T09:26:50.471Z,13.60
2022-11-24T09:31:51.928Z,13.94
2022-11-24T09:36:53.384Z,14.02
2022-11-24T09:42:00.040Z,14.24
2022-11-24T09:47:18.949Z,14.08
2022-11-24T09:52:37.887Z,14.23
2022-11-24T09:57:39.336Z,14.73
2022-11-24T10:02:40.808Z,14.64
2022-11-24T10:07:45.351Z,14.48
2022-11-24T10:13:09.832Z,14.07
2022-11-24T10:18:33.150Z,14.64
2022-11-24T10:23:50.433Z,14.94
2022-11-24T10:28:54.148Z,14.71
2022-11-24T10:33:56.871Z,14.96
2022-11-24T10:39:11.087Z,14.91
2022-11-24T10:44:13.901Z,14.80
2022-11-24T10:49:24.971Z,15.01
2022-11-24T10:54:26.436Z,14.80
2022-11-24T10:59:33.630Z,14.59
2022-11-24T11:04:35.477Z,14.68
2022-11-24T11:09:37.093Z,14.56
2022-11-24T11:14:38.848Z,14.54
2022-11-24T11:19:50.373Z,14.81
2022-11-24T11:25:19.336Z,14.44
2022-11-24T11:35:44.875Z,14.51
2022-11-24T11:40:46.328Z,14.47
2022-11-24T11:45:47.823Z,14.83
2022-11-24T11:56:20.593Z,14.92
2022-11-24T12:01:54.353Z,14.77
2022-11-24T12:07:07.618Z,14.68
2022-11-24T12:12:29.511Z,14.04
2022-11-24T12:17:52.645Z,14.15
2022-11-24T12:23:02.877Z,14.48
2022-11-24T12:28:24.097Z,14.63
2022-11-24T12:33:37.407Z,14.60
2022-11-24T12:38:45.613Z,14.77
2022-11-24T12:43:54.801Z,14.45
2022-11-24T12:49:17.418Z,14.28
2022-11-24T12:54:19.795Z,14.22
2022-11-24T12:59:34.571Z,14.59
2022-11-24T13:04:41.871Z,14.26
2022-11-24T13:10:34.657Z,14.74
2022-11-24T13:16:28.480Z,14.17
2022-11-24T13:21:28.249Z,14.69
2022-11-24T13:26:44.695Z,14.73
2022-11-24T13:31:46.252Z,14.65
2022-11-24T13:36:52.258Z,14.77
2022-11-24T13:41:53.622Z,14.58
2022-11-24T13:47:00.176Z,14.30
2022-11-24T13:52:39.610Z,14.63
2022-11-24T13:58:05.018Z,14.71
2022-11-24T14:03:19.647Z,14.61
2022-11-24T14:08:25.591Z,14.42
2022-11-24T14:13:28.603Z,14.79
2022-11-24T14:18:31.522Z,14.80
2022-11-24T14:23:33.006Z,14.79
2022-11-24T14:28:34.587Z,14.68
2022-11-24T14:33:36.350Z,14.80
2022-11-24T14:38:37.828Z,14.84
2022-11-24T14:43:39.293Z,14.95
2022-11-24T14:48:50.722Z,14.79
2022-11-24T14:53:59.877Z,14.87
2022-11-24T14:59:01.354Z,14.58
2022-11-24T15:09:47.496Z,14.44
2022-11-24T15:14:52.436Z,14.60
2022-11-24T15:20:30.322Z,14.62
2022-11-24T15:25:33.327Z,14.58
2022-11-24T15:30:35.576Z,14.73
2022-11-24T15:35:37.060Z,14.55
2022-11-24T15:40:39.047Z,14.35
2022-11-24T15:45:40.502Z,14.06
2022-11-24T15:50:41.977Z,14.30
2022-11-24T15:55:43.484Z,14.12
2022-11-24T16:00:45.357Z,14.25
2022-11-24T16:05:46.888Z,14.24
2022-11-24T16:10:48.354Z,14.29
2022-11-24T16:15:50.017Z,14.04
2022-11-24T16:20:51.604Z,14.23
2022-11-24T16:25:53.068Z,14.12
2022-11-24T16:30:54.571Z,14.45
2022-11-24T16:35:56.065Z,14.17
2022-11-24T16:40:57.544Z,14.23
2022-11-24T16:46:17.597Z,13.69
2022-11-24T16:51:20.624Z,13.85
2022-11-24T16:56:22.084Z,13.07
2022-11-24T17:01:23.694Z,13.57
2022-11-24T17:06:26.748Z,13.86
2022-11-24T17:11:28.412Z,13.61
2022-11-24T17:16:30.128Z,13.22
2022-11-24T17:21:32.136Z,13.46
2022-11-24T17:26:33.688Z,13.39
2022-11-24T17:31:40.033Z,13.57
2022-11-24T17:36:44.570Z,13.60
2022-11-24T17:41:46.118Z,13.25
2022-11-24T17:46:47.578Z,13.55
2022-11-24T17:51:50.471Z,13.77
2022-11-24T17:56:51.989Z,13.44
2022-11-24T18:01:53.495Z,13.58
2022-11-24T18:06:55.049Z,13.41
2022-11-24T18:11:56.514Z,13.25
2022-11-24T18:16:58.048Z,13.59
2022-11-24T18:21:59.576Z,13.65
2022-11-24T18:27:01.036Z,12.81
2022-11-24T18:32:02.587Z,13.38
2022-11-24T18:37:04.341Z,13.57
2022-11-24T18:42:05.828Z,13.39
2022-11-24T18:47:07.293Z,12.82
2022-11-24T18:52:08.780Z,13.10
2022-11-24T18:57:10.270Z,12.93
2022-11-24T19:02:12.261Z,13.08
2022-11-24T19:07:16.913Z,13.17
2022-11-24T19:12:18.457Z,12.68
2022-11-24T19:17:19.977Z,12.20
2022-11-24T19:22:21.748Z,12.71
2022-11-24T19:27:23.234Z,12.95
2022-11-24T19:32:24.720Z,12.90
2022-11-24T19:37:27.726Z,12.85
2022-11-24T19:42:29.203Z,12.79
2022-11-24T19:47:30.669Z,13.10
2022-11-24T19:52:32.135Z,12.90
2022-11-24T19:57:33.616Z,12.35
2022-11-24T20:02:35.131Z,11.92
2022-11-24T20:07:36.769Z,12.76
2022-11-24T20:12:38.250Z,12.55
2022-11-24T20:17:39.726Z,12.66
2022-11-24T20:22:41.524Z,12.28
2022-11-24T20:27:42.992Z,12.55
2022-11-24T20:32:44.469Z,12.53
2022-11-24T20:37:45.929Z,12.59
2022-11-24T20:42:47.383Z,12.81
2022-11-24T20:47:48.850Z,12.72
2022-11-24T20:52:50.323Z,12.64
2022-11-24T20:57:51.785Z,12.71
2022-11-24T21:02:53.313Z,12.92
2022-11-24T21:07:54.871Z,12.95
2022-11-24T21:12:56.408Z,13.06
2022-11-24T21:17:57.928Z,13.07
2022-11-24T21:22:59.393Z,12.82
2022-11-24T21:28:00.862Z,12.80
2022-11-24T21:33:05.401Z,13.05
2022-11-24T21:38:06.854Z,13.08
2022-11-24T21:43:08.904Z,12.96
2022-11-24T21:48:10.365Z,12.78
2022-11-24T21:53:11.824Z,13.16
2022-11-24T21:58:13.844Z,13.12
2022-11-24T22:03:15.317Z,12.98
2022-11-24T22:08:16.776Z,12.66
2022-11-24T22:13:18.340Z,12.54
2022-11-24T22:18:19.824Z,12.87
2022-11-24T22:23:21.274Z,12.99
2022-11-24T22:28:22.732Z,12.67
2022-11-24T22:33:24.185Z,12.69
2022-11-24T22:38:25.804Z,13.09
2022-11-24T22:43:27.261Z,12.96
2022-11-24T22:48:28.723Z,12.98
2022-11-24T22:53:30.423Z,12.81
2022-11-24T22:58:32.164Z,13.24
2022-11-24T23:03:34.353Z,12.96
2022-11-24T23:08:35.908Z,12.70
2022-11-24T23:13:37.378Z,12.86
2022-11-24T23:18:38.918Z,12.63
2022-11-24T23:23:40.452Z,12.52
2022-11-24T23:28:43.067Z,12.33
2022-11-24T23:33:44.596Z,12.97
2022-11-24T23:38:46.357Z,12.71
2022-11-24T23:43:47.835Z,12.57
2022-11-24T23:48:49.730Z,12.74
2022-11-24T23:53:51.266Z,12.54
2022-11-24T23:58:52.778Z,12.97
